Grand Race — 3FZH9 — position and weather

sailwx.info

Track history (hours):
 
Tides and Currents Weather Stations Pressure Air Temp Water Temp Dewpoint Dewpoint Depression Visibility Wind Speed Wind Dir Waves Ship Positions

Grand Race

Last reported at 2018-Feb-19 10:49 UTC. Time now 2018-Feb-21 03:32 UTC.
Position N 35°02' E 140°26'.

Length 179.2 m; beam 32.3 m.

Type: Cargo ship. MMSI: 357983000.

Date/timePositionNaut miles runAvg speedWind from/ knotsBaromVisibWave heightAir tempDewpointWater temp
2018-Feb-19 10:49N 35°02' E 140°26'619.9
2018-Feb-19 10:30N 34°57' E 140°20'919.5
2018-Feb-19 10:00N 34°51' E 140°12'1018.9
2018-Feb-19 09:30N 34°45' E 140°03'918.4
2018-Feb-19 09:00N 34°39' E 139°55'918.3
2018-Feb-19 08:30N 34°33' E 139°47'1018.3
2018-Feb-19 07:59N 34°27' E 139°37'917.8
2018-Feb-19 07:30N 34°21' E 139°30'1118.0
2018-Feb-19 06:54N 34°14' E 139°20'1017.8
2018-Feb-19 06:20N 34°08' E 139°10'817.7
2018-Feb-19 05:51N 34°05' E 139°01'717.7
2018-Feb-19 05:29N 34°03' E 138°53'817.5
2018-Feb-19 05:00N 34°01' E 138°43'917.1
2018-Feb-19 04:28N 33°58' E 138°33'  
Track history (hours):
 
Tides and Currents Weather Stations Pressure Air Temp Water Temp Dewpoint Dewpoint Depression Visibility Wind Speed Wind Dir Waves Ship Positions

Grand Race

Last reported at 2018-Feb-19 10:49 UTC. Time now 2018-Feb-21 03:32 UTC.
Position N 35°02' E 140°26'.

Length 179.2 m; beam 32.3 m.

Type: Cargo ship. MMSI: 357983000.

Date/timePositionNaut miles runAvg speedWind from/ knotsBaromVisibWave heightAir tempDewpointWater temp
2018-Feb-19 10:49N 35°02' E 140°26'619.9
2018-Feb-19 10:30N 34°57' E 140°20'919.5
2018-Feb-19 10:00N 34°51' E 140°12'1018.9
2018-Feb-19 09:30N 34°45' E 140°03'918.4
2018-Feb-19 09:00N 34°39' E 139°55'918.3
2018-Feb-19 08:30N 34°33' E 139°47'1018.3
2018-Feb-19 07:59N 34°27' E 139°37'917.8
2018-Feb-19 07:30N 34°21' E 139°30'1118.0
2018-Feb-19 06:54N 34°14' E 139°20'1017.8
2018-Feb-19 06:20N 34°08' E 139°10'817.7
2018-Feb-19 05:51N 34°05' E 139°01'717.7
2018-Feb-19 05:29N 34°03' E 138°53'817.5
2018-Feb-19 05:00N 34°01' E 138°43'917.1
2018-Feb-19 04:28N 33°58' E 138°33'  

Dump ship's entire track history